Latest Weather Observations for Warwick

IDQ60901

Issued at 11:41 am EST Wednesday 18 January 2017 (issued every 10 minutes, with the page automatically refreshed every 10 minutes)

About weather observations | Map of Brisbane area stations | Latest observations for Brisbane area | Other Formats
Station Details ID: 041525 Name: WARWICK Lat: -28.21 Lon: 152.10 Height: 475.4 m
Data from the previous 72 hours. | See also: Recent months at Warwick
Date/Time
EST
Temp
°C
App
Temp
°C
Dew
Point
°C
Rel
Hum
%
Delta-T
°C
Wind Press
QNH
hPa
Press
MSL
hPa
Rain since
9am
mm
Dir  Spd
km/h
Gust
km/h
Spd
kts
Gust
kts
18/11:30am 31.1 31.5 19.9 51 7.5 WNW 17 30 9 16 1014.2 1011.6 0.0
18/11:00am 30.2 31.6 20.4 55 6.6 W 13 22 7 12 1014.7 1012.1 0.0
18/10:30am 29.5 30.7 20.6 58 6.0 WNW 15 28 8 15 1015.2 1012.5 0.0
18/10:00am 28.2 29.3 19.6 59 5.7 WNW 13 24 7 13 1015.5 1012.8 0.0
18/09:30am 27.4 28.6 20.0 64 4.9 WNW 13 19 7 10 1015.8 1013.1 0.0
18/09:00am 26.3 27.1 19.8 67 4.3 WNW 15 20 8 11 1016.2 1013.6 0.0
18/08:30am 25.5 26.2 19.7 70 3.8 W 15 22 8 12 1016.4 1013.8 0.0
18/08:00am 25.0 26.5 19.8 73 3.4 W 11 19 6 10 1016.6 1014.0 0.0
18/07:30am 24.1 27.2 20.2 79 2.6 W 4 11 2 6 1016.6 1014.0 0.0
18/07:00am 22.6 26.5 20.3 87 1.5 CALM 0 0 0 0 1016.3 1013.7 0.0
18/06:30am 21.5 25.2 20.0 91 1.0 CALM 0 0 0 0 1016.2 1013.6 0.0
18/06:00am 19.8 22.8 19.2 96 0.4 NE 2 6 1 3 1016.1 1013.5 0.0
18/05:30am 19.3 22.6 19.0 98 0.2 CALM 0 0 0 0 1015.8 1013.1 0.0
18/05:00am 19.7 23.0 19.2 97 0.3 CALM 0 0 0 0 1015.4 1012.7 0.0
18/04:30am 20.3 23.0 19.5 95 0.5 WNW 4 9 2 5 1015.2 1012.5 0.0
18/04:00am 20.0 23.4 19.4 96 0.4 CALM 0 0 0 0 1014.8 1012.2 0.0
18/03:30am 20.4 23.9 19.6 95 0.5 CALM 0 0 0 0 1014.5 1011.9 0.0
18/03:00am 20.7 24.3 19.8 95 0.6 CALM 0 0 0 0 1014.5 1011.9 0.0
18/02:30am 20.9 23.4 19.8 93 0.7 NNW 6 7 3 4 1014.4 1011.8 0.0
18/02:00am 20.6 24.2 19.7 95 0.6 CALM 0 0 0 0 1014.6 1012.0 0.0
18/01:30am 21.2 23.6 20.1 93 0.7 WSW 7 9 4 5 1014.7 1012.1 0.0
18/01:00am 21.0 24.8 20.1 95 0.6 CALM 0 0 0 0 1014.9 1012.3 0.0
18/12:30am 21.6 25.4 20.2 92 0.9 CALM 0 0 0 0 1015.4 1012.7 0.0
18/12:00am 21.8 25.7 20.4 92 0.9 CALM 0 0 0 0 1015.7 1013.0 0.0
 
Date/Time
EST
Temp
°C
App
Temp
°C
Dew
Point
°C
Rel
Hum
%
Delta-T
°C
Wind Press
QNH
hPa
Press
MSL
hPa
Rain since
9am
mm
Dir  Spd
km/h
Gust
km/h
Spd
kts
Gust
kts
17/11:30pm 22.3 26.3 20.5 89 1.2 CALM 0 0 0 0 1015.9 1013.2 0.0
17/11:00pm 22.4 26.3 20.4 88 1.3 CALM 0 0 0 0 1016.2 1013.6 0.0
17/10:30pm 23.7 27.8 20.7 83 2.0 CALM 0 0 0 0 1016.4 1013.8 0.0
17/10:00pm 24.0 25.8 20.4 80 2.4 NNE 11 13 6 7 1016.4 1013.8 0.0
17/09:30pm 24.1 26.5 20.8 82 2.2 NE 9 11 5 6 1016.6 1014.0 0.0
17/09:00pm 24.8 25.9 20.4 76 2.9 NE 15 17 8 9 1016.3 1013.7 0.0
17/08:30pm 24.8 26.2 20.3 76 3.0 NE 13 17 7 9 1016.3 1013.7 0.0
17/08:00pm 26.3 26.7 19.1 64 4.7 NE 15 19 8 10 1016.2 1013.6 0.0
17/07:30pm 26.6 27.0 18.2 60 5.4 NNE 13 19 7 10 1016.0 1013.3 0.0
17/07:00pm 27.1 27.4 18.7 60 5.5 NE 15 20 8 11 1015.7 1013.0 0.0
17/06:30pm 28.5 27.8 18.2 53 6.7 NE 19 26 10 14 1015.4 1012.7 0.0
17/06:00pm 30.1 29.8 19.2 52 7.2 NE 19 26 10 14 1014.9 1012.3 0.0
17/05:30pm 31.1 30.9 19.7 50 7.6 NE 20 26 11 14 1014.7 1012.1 0.0
17/05:00pm 31.4 31.5 19.9 50 7.7 NE 19 24 10 13 1014.6 1012.0 0.0
17/04:30pm 32.7 33.0 18.8 43 9.2 N 15 24 8 13 1014.5 1011.9 0.0
17/04:00pm 32.3 31.8 17.9 42 9.4 NNE 17 22 9 12 1014.5 1011.9 0.0
17/03:30pm 32.6 34.8 19.3 45 8.9 NNW 6 13 3 7 1014.7 1012.1 0.0
17/03:00pm 32.1 33.0 17.5 41 9.5 NW 9 15 5 8 1014.9 1012.3 0.0
17/02:30pm 32.2 34.4 19.1 45 8.7 ESE 6 15 3 8 1015.3 1012.6 0.0
17/02:00pm 31.4 33.6 19.2 48 8.1 ESE 6 15 3 8 1015.6 1012.9 0.0
17/01:30pm 31.5 33.8 19.5 49 8.0 WNW 6 13 3 7 1015.9 1013.2 0.0
17/01:00pm 30.9 32.8 19.7 51 7.5 NW 9 19 5 10 1016.4 1013.8 0.0
17/12:30pm 30.2 32.7 20.2 55 6.7 W 7 15 4 8 1016.9 1014.3 0.0
17/12:00pm 29.2 30.7 18.1 51 7.2 W 7 15 4 8 1017.5 1014.8 0.0
17/11:30am 29.5 31.5 19.2 54 6.8 E 7 15 4 8 1018.0 1015.4 0.0
17/11:00am 28.5 29.8 18.4 54 6.6 NNE 9 17 5 9 1018.3 1015.7 0.0
17/10:30am 28.0 29.3 18.5 56 6.2 N 9 15 5 8 1018.6 1016.0 0.0
17/10:00am 27.0 28.1 18.0 58 5.8 N 9 17 5 9 1018.7 1016.1 0.0
17/09:30am 26.7 28.9 19.2 63 4.9 S 6 13 3 7 1018.7 1016.1 0.0
17/09:00am 25.5 27.3 18.7 66 4.4 SW 7 13 4 7 1018.9 1016.3 0.0
17/08:30am 25.0 26.3 18.5 67 4.2 WSW 9 11 5 6 1019.1 1016.5 0.0
17/08:00am 25.0 26.9 18.5 67 4.2 ESE 6 9 3 5 1019.0 1016.4 0.0
17/07:30am 24.0 26.3 18.6 72 3.5 ESE 4 7 2 4 1019.0 1016.4 0.0
17/07:00am 23.0 25.7 18.6 76 2.8 ESE 2 9 1 5 1018.9 1016.3 0.0
17/06:30am 21.0 24.0 18.5 85 1.6 CALM 0 0 0 0 1018.6 1016.0 0.0
17/06:00am 19.3 22.3 18.4 94 0.6 CALM 0 0 0 0 1018.3 1015.7 0.0
17/05:30am 18.7 21.0 17.7 94 0.6 SSW 2 7 1 4 1018.1 1015.5 0.0
17/05:00am 19.1 20.7 17.8 92 0.8 NE 6 7 3 4 1017.7 1015.0 0.0
17/04:30am 19.0 20.1 18.0 94 0.6 NNE 9 11 5 6 1017.3 1014.6 0.0
17/04:00am 19.3 22.1 18.0 92 0.8 CALM 0 6 0 3 1017.1 1014.5 0.0
17/03:30am 19.6 22.6 18.5 93 0.7 CALM 0 0 0 0 1016.8 1014.2 0.0
17/03:00am 19.8 23.1 19.0 95 0.5 CALM 0 0 0 0 1016.9 1014.3 0.0
17/02:30am 20.6 22.8 19.2 92 0.9 ENE 6 7 3 4 1016.9 1014.3 0.0
17/02:00am 20.6 22.2 19.2 92 0.9 NNE 9 11 5 6 1017.1 1014.5 0.0
17/01:30am 20.3 21.9 19.2 93 0.7 NE 9 11 5 6 1017.4 1014.7 0.0
17/01:00am 20.5 22.2 19.3 93 0.8 NE 9 13 5 7 1017.4 1014.7 0.0
17/12:30am 20.5 22.6 19.3 93 0.8 ENE 7 9 4 5 1017.3 1014.6 0.0
17/12:00am 21.5 23.9 19.7 89 1.2 E 6 9 3 5 1017.5 1014.8 0.0
 
Date/Time
EST
Temp
°C
App
Temp
°C
Dew
Point
°C
Rel
Hum
%
Delta-T
°C
Wind Press
QNH
hPa
Press
MSL
hPa
Rain since
9am
mm
Dir  Spd
km/h
Gust
km/h
Spd
kts
Gust
kts
16/11:30pm 21.3 23.8 19.8 91 1.0 NE 6 7 3 4 1017.8 1015.1 0.0
16/11:00pm 22.0 24.0 19.9 88 1.4 ENE 9 11 5 6 1017.8 1015.1 0.0
16/10:30pm 22.4 24.6 20.3 88 1.4 NE 9 13 5 7 1018.0 1015.4 0.0
16/10:00pm 22.8 25.7 20.7 88 1.4 ENE 6 9 3 5 1018.0 1015.4 0.0
16/09:30pm 23.7 26.4 20.7 83 2.0 ENE 7 11 4 6 1018.0 1015.4 0.0
16/09:00pm 23.6 26.3 20.6 83 2.0 ENE 7 13 4 7 1017.8 1015.1 0.0
16/08:30pm 23.9 26.8 20.7 82 2.1 ENE 6 9 3 5 1017.6 1014.9 0.0
16/08:00pm 24.3 26.4 21.0 82 2.2 NE 11 13 6 7 1017.4 1014.7 0.0
16/07:30pm 24.9 26.3 20.4 76 3.0 ENE 13 19 7 10 1017.0 1014.4 0.0
16/07:00pm 25.3 25.9 20.3 74 3.3 NE 17 20 9 11 1016.7 1014.1 0.0
16/06:30pm 26.3 26.4 20.0 68 4.2 NE 19 24 10 13 1016.2 1013.6 0.0
16/06:00pm 26.9 27.5 20.3 67 4.4 NE 17 24 9 13 1015.9 1013.2 0.0
16/05:30pm 27.8 28.3 20.1 63 5.1 E 17 24 9 13 1015.4 1012.7 0.0
16/05:00pm 28.9 30.2 19.4 56 6.3 E 11 19 6 10 1014.9 1012.3 0.0
16/04:30pm 28.4 30.2 19.5 58 5.9 ENE 9 15 5 8 1014.8 1012.2 0.0
16/04:00pm 28.4 29.6 19.8 59 5.7 E 13 17 7 9 1014.8 1012.2 0.0
16/03:30pm 29.4 31.5 18.9 53 6.9 E 6 9 3 5 1014.5 1011.9 0.0
16/03:00pm 29.0 31.0 19.1 55 6.5 ESE 7 13 4 7 1014.7 1012.1 0.0
16/02:30pm 29.3 31.3 19.2 54 6.7 SE 7 15 4 8 1014.7 1012.1 0.0
16/02:00pm 30.2 31.8 19.2 51 7.3 SE 9 15 5 8 1014.8 1012.2 0.0
16/01:30pm 29.9 32.0 19.0 52 7.2 E 6 13 3 7 1015.1 1012.4 0.0
16/01:00pm 28.9 31.0 19.4 56 6.3 ESE 7 13 4 7 1015.4 1012.7 0.0
16/12:30pm 28.9 30.8 19.7 57 6.1 SSE 9 17 5 9 1015.6 1012.9 0.0
16/12:00pm 29.1 31.3 20.5 59 5.8 SE 9 17 5 9 1015.9 1013.2 0.0
16/11:30am 28.0 29.4 19.5 60 5.6 SSE 11 19 6 10 1016.1 1013.5 0.0
16/11:00am 27.6 28.9 19.4 61 5.4 ESE 11 17 6 9 1016.4 1013.8 0.0
16/10:30am 27.1 27.9 19.0 61 5.3 SE 13 19 7 10 1016.7 1014.1 0.0
16/10:00am 26.3 26.7 19.1 64 4.7 SSE 15 26 8 14 1016.8 1014.2 0.0
16/09:30am 25.8 26.5 19.6 68 4.1 SSE 15 26 8 14 1017.0 1014.4 0.0
16/09:00am 24.9 24.6 19.2 70 3.7 SSE 19 30 10 16 1017.1 1014.5 0.0
16/08:30am 24.4 24.7 19.5 74 3.2 SSE 17 24 9 13 1017.1 1014.5 0.0
16/08:00am 23.5 23.9 19.0 76 2.9 SE 15 24 8 13 1017.1 1014.5 0.0
16/07:30am 23.1 23.9 19.1 78 2.6 SE 13 24 7 13 1016.8 1014.2 0.0
16/07:00am 22.1 22.4 18.8 81 2.1 SSE 15 20 8 11 1016.8 1014.2 0.0
16/06:30am 21.7 22.4 18.9 84 1.8 SE 13 24 7 13 1016.6 1014.0 0.0
16/06:00am 20.2 21.1 18.3 89 1.2 SE 11 19 6 10 1016.4 1013.8 0.0
16/05:30am 19.8 20.6 18.2 90 1.0 SE 11 17 6 9 1016.1 1013.5 0.0
16/05:00am 19.5 21.1 18.2 92 0.8 SE 7 13 4 7 1015.6 1012.9 0.0
16/04:30am 19.6 21.2 18.3 92 0.8 SSE 7 13 4 7 1015.2 1012.5 0.0
16/04:00am 19.8 21.0 18.2 90 1.0 SE 9 20 5 11 1014.8 1012.2 0.0
16/03:30am 19.7 20.9 18.3 92 0.9 SSE 9 15 5 8 1014.4 1011.8 0.0
16/03:00am 19.5 20.8 18.4 93 0.7 SE 9 15 5 8 1014.3 1011.7 0.0
16/02:30am 19.7 20.2 18.4 92 0.8 SE 13 22 7 12 1014.2 1011.6 0.0
16/02:00am 19.8 20.4 18.5 92 0.8 SE 13 20 7 11 1014.3 1011.7 0.0
16/01:30am 19.8 20.8 18.7 93 0.7 SSE 11 19 6 10 1014.8 1012.2 0.0
16/01:00am 19.7 21.6 18.9 95 0.5 SSE 7 15 4 8 1015.2 1012.5 0.0
16/12:30am 20.1 21.9 18.8 92 0.8 SE 7 11 4 6 1015.4 1012.7 0.0
16/12:00am 20.6 22.6 19.2 92 0.9 SSE 7 15 4 8 1015.7 1013.0 0.0
 
Date/Time
EST
Temp
°C
App
Temp
°C
Dew
Point
°C
Rel
Hum
%
Delta-T
°C
Wind Press
QNH
hPa
Press
MSL
hPa
Rain since
9am
mm
Dir  Spd
km/h
Gust
km/h
Spd
kts
Gust
kts
15/11:30pm 20.9 22.2 19.4 91 1.0 SE 11 17 6 9 1016.1 1013.5 0.0
15/11:00pm 21.2 22.9 19.3 89 1.2 ESE 9 19 5 10 1016.3 1013.7 0.0
15/10:30pm 21.2 22.1 19.3 89 1.2 SE 13 20 7 11 1016.4 1013.8 0.0
15/10:00pm 21.3 21.0 19.1 87 1.4 SE 19 30 10 16 1016.2 1013.6 0.0
15/09:30pm 21.4 21.5 19.1 87 1.5 SE 17 32 9 17 1015.7 1013.0 0.0
15/09:00pm 21.6 21.3 19.1 86 1.6 SE 19 30 10 16 1015.4 1012.7 0.0
15/08:30pm 21.5 22.1 19.5 88 1.3 SE 15 32 8 17 1014.5 1011.9 0.0
15/08:00pm 21.8 21.7 19.5 87 1.5 SE 19 32 10 17 1014.1 1011.4 0.0
15/07:30pm 22.0 22.4 19.9 88 1.4 SE 17 32 9 17 1014.3 1011.7 0.0
15/07:00pm 22.4 22.8 19.8 85 1.7 SE 17 30 9 16 1013.8 1011.1 0.0
15/06:30pm 22.5 22.9 19.9 85 1.7 SE 17 28 9 15 1013.1 1010.4 0.0
15/06:00pm 23.1 22.7 20.1 83 2.0 SE 22 37 12 20 1012.5 1009.9 0.0
15/05:30pm 23.6 23.1 20.7 84 1.9 SE 24 39 13 21 1011.8 1009.1 0.0
15/05:00pm 23.8 24.4 21.3 86 1.7 SE 20 32 11 17 1011.5 1008.8 0.0
15/04:30pm 24.8 25.7 21.5 82 2.2 SE 19 33 10 18 1011.8 1009.1 0.0
15/04:00pm 25.4 26.2 21.7 80 2.5 SE 20 37 11 20 1011.3 1008.6 0.0
15/03:44pm 26.8 25.6 21.6 73 3.5 SE 30 48 16 26 1011.0 1008.3 0.0
15/03:30pm 26.6 26.1 22.1 76 3.1 SE 28 43 15 23 1010.7 1008.0 0.0
15/03:00pm 27.5 28.2 23.6 79 2.7 SE 26 43 14 23 1010.4 1007.8 0.0
15/02:30pm 29.3 31.0 23.4 70 4.1 SE 20 32 11 17 1010.4 1007.8 0.0
15/02:00pm 29.9 31.7 23.3 67 4.6 SSE 19 30 10 16 1010.6 1007.9 0.0
15/01:30pm 30.1 31.8 21.0 58 6.2 E 13 19 7 10 1011.0 1008.3 0.0
15/01:00pm 30.2 32.6 20.9 57 6.3 E 9 17 5 9 1011.2 1008.5 0.0
15/12:30pm 30.1 33.3 22.4 63 5.3 E 9 13 5 7 1011.4 1008.7 0.0
15/12:00pm 29.3 32.3 22.0 64 5.0 ESE 9 17 5 9 1011.3 1008.6 0.0

Latest Capital City Observations: Canberra | Sydney | Melbourne | Brisbane | Adelaide | Perth | Hobart | Darwin

Other Formats:

Comma delimited format used in spreadsheet applications
http://www.bom.gov.au/fwo/IDQ60901/IDQ60901.94555.axf

JavaScript Object Notation format (JSON) in row-major order
http://www.bom.gov.au/fwo/IDQ60901/IDQ60901.94555.json